• Join FlightAware (Why Join?)
  • Login
  • US Flag 
08:09AM EST


 

Airport Tracker/Info


-or-


 

Live Flight TrackerFlight Track Log ✈ UAL4115 ✈ 18-Apr-2013 ✈ MMGL / GDL - KIAH

Flight Track Log - Related Links

Times and Time Zones

All times are in EDT time to prevent confusion due to time zone crossing. See the UAL4115 flight status page for this flight to view local times or setup timezone preferences in your user account.

Time Position Orientation Groundspeed Altitude Reporting Facility
EDT Latitude Longitude Course Direction KTS MPH feet Rate Location/Type
08:34AM 25.6956 -100.0931 44° Northeast 501 577 35,000  Level Houston Center
08:35AM 25.7944 -99.9881 44° Northeast 499 574 35,000  Level Houston Center
08:36AM 25.8911 -99.8828 44° Northeast 493 567 35,000 -60 Level Houston Center
08:37AM 25.9894 -99.7767 44° Northeast 492 566 34,900  Descending Houston Center
08:38AM 26.0892 -99.6714 43° Northeast 495 570 35,000  Climbing Houston Center
08:39AM 26.1889 -99.5619 45° Northeast 501 577 35,000  Level Houston Center
08:40AM 26.2894 -99.4528 44° Northeast 504 580 35,000  Level Houston Center
08:41AM 26.4097 -99.3222 44° Northeast 505 581 35,000  Level Houston Center
08:42AM 26.5081 -99.2097 46° Northeast 506 582 35,000  Level Houston Center
08:43AM 26.6044 -99.0953 47° Northeast 507 583 35,000  Level Houston Center
08:44AM 26.6981 -98.9783 48° Northeast 508 585 35,000  Level Houston Center
08:45AM 26.8025 -98.8769 41° Northeast 502 578 35,000  Level Houston Center
08:46AM 26.9361 -98.7728 35° Northeast 496 571 35,000  Level Houston Center
08:47AM 27.0542 -98.7058 27° Northeast 480 552 35,000  Level Houston Center
08:48AM 27.1731 -98.6397 26° Northeast 481 554 35,000  Level Houston Center
08:49AM 27.2914 -98.5736 26° Northeast 479 551 35,000  Level Houston Center
08:50AM 27.4106 -98.5075 26° Northeast 482 555 35,000  Level Houston Center
08:51AM 27.5542 -98.4275 26° Northeast 483 556 35,000  Level Houston Center
08:52AM 27.6736 -98.3617 26° Northeast 482 555 35,000  Level Houston Center
08:53AM 27.7928 -98.2928 27° Northeast 483 556 35,000  Level Houston Center
08:54AM 27.8931 -98.1814 44° Northeast 505 581 35,000  Level Houston Center
08:55AM 27.9908 -98.0644 47° Northeast 512 589 35,000  Level Houston Center
08:56AM 28.0864 -97.9486 47° Northeast 509 586 35,000  Level Houston Center
08:57AM 28.1967 -97.8156 47° Northeast 489 563 35,000  Level Houston Center
08:58AM 28.2917 -97.7081 45° Northeast 483 556 35,000  Level Houston Center
08:59AM 28.3844 -97.5958 47° Northeast 485 558 35,000  Level Houston Center
09:00AM 28.4786 -97.4839 46° Northeast 489 563 35,000  Level Houston Center
09:01AM 28.5922 -97.4311 22° Northeast 472 543 35,000 -300 Level Houston Center
09:03AM 28.7058 -97.4639 346° North 431 496 34,500 -1,140 Descending Houston Center
09:04AM 28.8456 -97.5039 346° North 429 494 32,700 -1,800 Descending Houston Center
09:05AM 28.9722 -97.5031 360° North 455 524 30,900 -1,680 Descending Houston Center
09:06AM 29.1022 -97.4892 North 466 536 29,300 -1,020 Descending Houston Center
09:07AM 29.2319 -97.4347 20° North 494 568 28,900 -1,080 Descending Houston Center
09:08AM 29.3486 -97.3464 33° Northeast 504 580 27,100 -1,680 Descending Houston Center
09:09AM 29.4089 -97.1992 65° Northeast 515 593 25,500 -1,680 Descending Houston Center
09:10AM 29.4308 -97.0381 81° East 506 582 23,700 -2,040 Descending Houston Center
09:11AM 29.4522 -96.8808 81° East 489 563 21,400 -2,340 Descending Houston Center
09:12AM 29.4703 -96.7414 82° East 432 497 18,900 -2,580 Descending Houston Center
09:13AM 29.4978 -96.6167 76° East 407 468 16,100 -2,940 Descending Houston Center
09:14AM 29.5456 -96.4800 68° East 391 450 12,900 -2,700 Descending Houston Center
09:15AM 29.5450 -96.3575 90° East 385 443 10,600 -2,100 Descending Houston Center
09:15AM 29.5458 -96.3178 89° East 377 434 10,100 -720 Descending Houston Center
09:16AM 29.5447 -96.2447 91° East 357 411 9,900 -120 Descending Houston Center
09:16AM 29.5450 -96.2075 89° East 337 388 10,000 -120 Climbing Houston Center
09:17AM 29.5578 -96.1425 77° East 330 380 9,800 -600 Descending Houston Center
09:18AM 29.6014 -96.0544 60° Northeast 320 368 9,000 -660 Descending Houston Center
09:18AM 29.6208 -96.0189 58° Northeast 323 372 9,000 -720 Level Houston Center
09:19AM 29.6653 -95.9639 47° Northeast 340 391 8,300 -900 Descending Houston Center
09:19AM 29.6869 -95.9561 17° North 337 388 8,100 -1,200 Descending Houston Center
09:20AM 29.7503 -95.9356 16° North 323 372 7,100 -1,080 Descending Houston Center
09:20AM 29.7811 -95.9308 North 292 336 6,900 -120 Descending Houston Center
09:21AM 29.8278 -95.9206 11° North 291 335 7,000 -300 Climbing Houston Center
09:22AM 29.8972 -95.9067 10° North 258 297 6,400 -720 Descending Houston Center
09:22AM 29.9178 -95.8839 44° Northeast 257 296 6,100 -900 Descending Houston Center
09:23AM 29.9344 -95.8397 66° East 255 293 5,500 -1,020 Descending Houston Center
09:23AM 29.9450 -95.8108 67° East 245 282 5,100 -540 Descending Houston Center
09:24AM 29.9611 -95.7694 66° East 242 278 5,000 -120 Descending Houston Center
09:24AM 29.9725 -95.7425 64° Northeast 226 260 5,000  Level Houston Center
09:25AM 29.9867 -95.7061 66° East 223 257 5,000  Level Houston Center
09:25AM 29.9922 -95.6800 76° East 214 246 5,000 -420 Level Houston Center
09:26AM 29.9939 -95.6292 88° East 207 238 4,600 -840 Descending Houston Center
09:27AM 29.9933 -95.5656 91° East 198 228 3,500 -1,020 Descending Houston Center
09:28AM 29.9939 -95.5039 89° East 196 226 2,600 -900 Descending Houston Center
09:29AM 29.9939 -95.4494 90° East 185 213 1,700 -780 Descending Houston Center
09:30AM 29.9942 -95.4011 90° East 169 194 1,000 -600 Descending Houston Center
09:31AM 29.9944 -95.3572 90° East 150 173 500 -540 Descending Houston Center
09:33AM 29.9833 -95.3333 49° Northeast  Level FlightAware Approximate
09:40AM 29.9844 -95.3414 49° Northeast  Level Estimated